createdAt,value
2023-01-09T00:01:25.604Z,0.73
2023-01-09T00:03:53.406Z,2.13
2023-01-09T00:06:21.595Z,1.10
2023-01-09T00:08:49.511Z,2.00
2023-01-09T00:11:18.754Z,1.05
2023-01-09T00:13:47.192Z,2.25
2023-01-09T00:16:15.026Z,0.63
2023-01-09T00:18:42.857Z,0.75
2023-01-09T00:21:12.937Z,0.82
2023-01-09T00:23:41.034Z,1.98
2023-01-09T00:26:10.855Z,1.02
2023-01-09T00:28:40.389Z,0.43
2023-01-09T00:31:09.659Z,2.58
2023-01-09T00:33:40.447Z,1.15
2023-01-09T00:36:08.842Z,1.77
2023-01-09T00:38:37.297Z,1.60
2023-01-09T00:41:07.128Z,1.73
2023-01-09T00:43:39.566Z,1.75
2023-01-09T00:46:09.287Z,0.90
2023-01-09T00:48:39.860Z,1.20
2023-01-09T00:51:08.247Z,2.65
2023-01-09T00:53:38.877Z,2.58
2023-01-09T00:56:11.313Z,3.28
2023-01-09T00:58:39.179Z,2.13
2023-01-09T01:01:08.815Z,1.27
2023-01-09T01:03:36.866Z,1.45
2023-01-09T01:06:22.491Z,1.15
2023-01-09T01:08:50.458Z,2.70
2023-01-09T01:11:18.247Z,4.55
2023-01-09T01:13:46.055Z,0.85
2023-01-09T01:16:15.317Z,0.95
2023-01-09T01:18:43.252Z,1.85
2023-01-09T01:21:14.184Z,1.33
2023-01-09T01:23:42.342Z,3.17
2023-01-09T01:26:13.524Z,1.10
2023-01-09T01:28:42.285Z,1.92
2023-01-09T01:31:10.609Z,1.63
2023-01-09T01:33:39.915Z,1.50
2023-01-09T01:36:09.875Z,2.40
2023-01-09T01:38:37.752Z,1.35
2023-01-09T01:41:06.999Z,2.40
2023-01-09T01:43:53.736Z,3.45
2023-01-09T01:46:21.521Z,3.78
2023-01-09T01:48:55.486Z,1.00
2023-01-09T01:51:25.905Z,0.73
2023-01-09T01:53:58.575Z,1.67
2023-01-09T01:56:29.828Z,1.35
2023-01-09T01:59:02.684Z,1.02
2023-01-09T02:01:31.482Z,0.85
2023-01-09T02:04:03.979Z,1.70
2023-01-09T02:06:34.502Z,2.53
2023-01-09T02:09:04.340Z,3.67
2023-01-09T02:11:32.221Z,1.52
2023-01-09T02:14:01.377Z,3.28
2023-01-09T02:16:42.235Z,2.67
2023-01-09T02:19:30.678Z,1.00
2023-01-09T02:22:08.609Z,2.55
2023-01-09T02:25:04.649Z,2.63
2023-01-09T02:28:00.445Z,2.10
2023-01-09T02:30:36.188Z,1.17
2023-01-09T02:33:21.592Z,2.15
2023-01-09T02:36:04.351Z,2.42
2023-01-09T02:38:37.501Z,1.90
2023-01-09T02:41:12.350Z,1.48
2023-01-09T02:43:41.653Z,1.13
2023-01-09T02:46:20.473Z,0.85
2023-01-09T02:48:51.976Z,3.35
2023-01-09T02:51:28.884Z,3.05
2023-01-09T02:54:12.757Z,2.92
2023-01-09T02:57:15.619Z,4.07
2023-01-09T02:59:57.583Z,3.35
2023-01-09T03:02:41.273Z,1.98
2023-01-09T03:05:15.315Z,2.78
2023-01-09T03:07:48.603Z,3.50
2023-01-09T03:10:22.418Z,3.63
2023-01-09T03:12:54.291Z,6.63
2023-01-09T03:15:26.990Z,4.75
2023-01-09T03:17:56.879Z,4.57
2023-01-09T03:20:27.826Z,3.35
2023-01-09T03:22:58.009Z,3.88
2023-01-09T03:25:27.580Z,3.55
2023-01-09T03:27:58.006Z,3.58
2023-01-09T03:30:27.622Z,5.25
2023-01-09T03:32:57.429Z,5.10
2023-01-09T03:35:25.882Z,2.97
2023-01-09T03:37:53.910Z,5.18
2023-01-09T03:40:22.311Z,5.57
2023-01-09T03:42:50.057Z,2.95
2023-01-09T03:45:17.978Z,5.00
2023-01-09T03:47:45.741Z,3.05
2023-01-09T03:50:14.962Z,4.72
2023-01-09T03:52:42.758Z,4.03
2023-01-09T03:55:10.735Z,5.38
2023-01-09T03:57:38.524Z,5.40
2023-01-09T04:00:08.473Z,1.60
2023-01-09T04:02:36.236Z,2.03
2023-01-09T04:05:04.069Z,4.25
2023-01-09T04:07:33.224Z,4.75
2023-01-09T04:10:01.062Z,3.58
2023-01-09T04:12:29.013Z,3.10
2023-01-09T04:14:56.742Z,4.55
2023-01-09T04:17:24.557Z,1.42
2023-01-09T04:19:52.340Z,2.75
2023-01-09T04:22:20.219Z,5.45
2023-01-09T04:24:49.411Z,4.63
2023-01-09T04:27:17.195Z,3.55
2023-01-09T04:29:44.983Z,3.00
2023-01-09T04:32:12.765Z,2.47
2023-01-09T04:34:40.563Z,2.20
2023-01-09T04:37:08.665Z,2.30
2023-01-09T04:39:37.297Z,3.25
2023-01-09T04:42:06.544Z,4.82
2023-01-09T04:44:34.337Z,4.47
2023-01-09T04:47:02.117Z,3.08
2023-01-09T04:49:29.961Z,7.85
2023-01-09T04:51:57.878Z,2.72
2023-01-09T04:54:25.701Z,5.90
2023-01-09T04:56:53.439Z,3.50
2023-01-09T04:59:22.863Z,9.15
2023-01-09T05:01:52.172Z,6.30
2023-01-09T05:04:20.089Z,5.57
2023-01-09T05:06:47.959Z,5.50
2023-01-09T05:09:15.740Z,5.30
2023-01-09T05:11:43.568Z,2.70
2023-01-09T05:14:12.840Z,2.63
2023-01-09T05:16:42.063Z,7.85
2023-01-09T05:19:09.869Z,4.28
2023-01-09T05:21:37.844Z,2.05
2023-01-09T05:24:06.116Z,5.30
2023-01-09T05:26:33.954Z,5.20
2023-01-09T05:29:01.754Z,4.65
2023-01-09T05:31:29.555Z,3.22
2023-01-09T05:33:59.321Z,4.90
2023-01-09T05:36:28.206Z,6.95
2023-01-09T05:38:57.805Z,5.38
2023-01-09T05:41:26.464Z,7.43
2023-01-09T05:43:54.487Z,2.08
2023-01-09T05:46:22.246Z,3.45
2023-01-09T05:48:50.099Z,4.88
2023-01-09T05:51:19.416Z,3.25
2023-01-09T05:53:47.217Z,3.80
2023-01-09T05:56:15.104Z,2.80
2023-01-09T05:58:43.182Z,4.28
2023-01-09T06:01:11.106Z,5.72
2023-01-09T06:03:38.972Z,7.22
2023-01-09T06:06:07.433Z,3.08
2023-01-09T06:08:36.582Z,2.78
2023-01-09T06:11:04.404Z,6.03
2023-01-09T06:13:32.563Z,7.15
2023-01-09T06:16:00.366Z,6.20
2023-01-09T06:18:28.195Z,1.38
2023-01-09T06:20:56.035Z,5.40
2023-01-09T06:23:24.002Z,4.93
2023-01-09T06:25:53.134Z,3.97
2023-01-09T06:28:20.917Z,5.85
2023-01-09T06:30:51.792Z,4.05
2023-01-09T06:33:20.006Z,8.27
2023-01-09T06:35:47.814Z,4.95
2023-01-09T06:38:15.616Z,9.55
2023-01-09T06:40:43.567Z,4.50
2023-01-09T06:43:12.703Z,3.72
2023-01-09T06:45:40.874Z,5.93
2023-01-09T06:48:08.907Z,10.00
2023-01-09T06:50:36.826Z,5.75
2023-01-09T06:53:04.824Z,3.78
2023-01-09T06:55:32.572Z,6.22
2023-01-09T06:58:00.449Z,6.75
2023-01-09T07:00:29.742Z,6.32
2023-01-09T07:02:57.748Z,6.30
2023-01-09T07:05:25.601Z,7.35
2023-01-09T07:07:53.369Z,5.28
2023-01-09T07:10:21.149Z,7.40
2023-01-09T07:12:48.918Z,9.10
2023-01-09T07:15:16.793Z,8.38
2023-01-09T07:17:46.048Z,9.38
2023-01-09T07:20:13.830Z,5.45
2023-01-09T07:22:42.940Z,4.55
2023-01-09T07:25:10.889Z,4.05
2023-01-09T07:27:38.724Z,5.35
2023-01-09T07:30:08.049Z,8.00
2023-01-09T07:32:36.209Z,6.15
2023-01-09T07:35:05.949Z,6.28
2023-01-09T07:37:34.236Z,7.32
2023-01-09T07:40:02.118Z,5.65
2023-01-09T07:42:29.954Z,9.70
2023-01-09T07:44:57.748Z,5.35
2023-01-09T07:47:25.510Z,7.10
2023-01-09T07:49:53.311Z,6.45
2023-01-09T07:52:23.044Z,9.07
2023-01-09T07:54:51.020Z,3.75
2023-01-09T07:57:18.777Z,7.45
2023-01-09T07:59:46.756Z,5.78
2023-01-09T08:02:14.623Z,3.28
2023-01-09T08:04:42.408Z,4.90
2023-01-09T08:07:10.333Z,6.60
2023-01-09T08:09:39.659Z,6.57
2023-01-09T08:12:07.619Z,8.43
2023-01-09T08:14:36.070Z,5.68
2023-01-09T08:17:03.945Z,7.22
2023-01-09T08:19:31.780Z,5.93
2023-01-09T08:21:59.673Z,4.93
2023-01-09T08:24:27.561Z,5.57
2023-01-09T08:26:56.848Z,5.43
2023-01-09T08:29:24.641Z,5.68
2023-01-09T08:31:52.477Z,3.85
2023-01-09T08:34:20.332Z,4.95
2023-01-09T08:36:48.105Z,3.88
2023-01-09T08:39:15.882Z,5.30
2023-01-09T08:42:00.995Z,7.68
2023-01-09T08:44:47.457Z,5.47
2023-01-09T08:47:17.501Z,7.97
2023-01-09T08:49:45.389Z,6.28
2023-01-09T08:52:13.747Z,3.60
2023-01-09T08:54:41.753Z,4.55
2023-01-09T08:57:09.763Z,6.15
2023-01-09T08:59:38.863Z,4.45
2023-01-09T09:02:06.710Z,3.92
2023-01-09T09:04:34.533Z,4.25
2023-01-09T09:07:02.544Z,7.53
2023-01-09T09:09:30.343Z,4.60
2023-01-09T09:11:58.150Z,4.22
2023-01-09T09:14:43.503Z,4.43
2023-01-09T09:17:12.788Z,5.80
2023-01-09T09:19:42.670Z,8.23
2023-01-09T09:22:10.500Z,5.07
2023-01-09T09:24:38.401Z,3.95
2023-01-09T09:27:06.187Z,4.97
2023-01-09T09:29:34.009Z,5.35
2023-01-09T09:32:01.815Z,4.45
2023-01-09T09:34:31.017Z,4.25
2023-01-09T09:36:58.963Z,4.45
2023-01-09T09:39:26.883Z,5.25
2023-01-09T09:42:34.924Z,5.20
2023-01-09T09:45:27.452Z,6.45
2023-01-09T09:48:08.027Z,3.45
2023-01-09T09:50:55.913Z,3.97
2023-01-09T09:53:30.783Z,5.93
2023-01-09T09:55:58.896Z,5.82
2023-01-09T09:58:32.730Z,6.97
2023-01-09T10:01:02.696Z,5.80
2023-01-09T10:03:38.378Z,4.78
2023-01-09T10:06:12.514Z,6.65
2023-01-09T10:08:48.087Z,3.50
2023-01-09T10:11:21.560Z,5.57
2023-01-09T10:14:22.976Z,4.82
2023-01-09T10:17:08.798Z,5.30
2023-01-09T10:19:49.690Z,5.00
2023-01-09T10:22:26.197Z,3.33
2023-01-09T10:25:05.853Z,4.55
2023-01-09T10:27:44.669Z,10.05
2023-01-09T10:30:29.283Z,4.90
2023-01-09T10:33:07.875Z,5.15
2023-01-09T10:35:50.348Z,6.40
2023-01-09T10:38:24.349Z,2.42
2023-01-09T10:41:01.602Z,5.25
2023-01-09T10:43:35.549Z,6.07
2023-01-09T10:46:08.737Z,4.20
2023-01-09T10:48:39.601Z,5.60
2023-01-09T10:51:19.033Z,5.07
2023-01-09T10:53:52.319Z,6.43
2023-01-09T10:56:24.438Z,7.50
2023-01-09T10:58:53.628Z,4.20
2023-01-09T11:01:26.915Z,6.35
2023-01-09T11:03:54.976Z,6.78
2023-01-09T11:06:26.383Z,4.65
2023-01-09T11:09:00.212Z,5.55
2023-01-09T11:11:36.131Z,5.38
2023-01-09T11:14:14.680Z,6.07
2023-01-09T11:16:53.088Z,4.03
2023-01-09T11:19:21.627Z,6.63
2023-01-09T11:21:49.947Z,4.47
2023-01-09T11:24:36.758Z,4.88
2023-01-09T11:27:25.562Z,5.20
2023-01-09T11:30:15.646Z,5.90
2023-01-09T11:32:44.506Z,5.00
2023-01-09T11:35:20.515Z,10.88
2023-01-09T11:37:51.335Z,6.40
2023-01-09T11:40:22.849Z,5.60
2023-01-09T11:43:06.094Z,7.45
2023-01-09T11:45:35.925Z,5.57
2023-01-09T11:48:18.392Z,7.85
2023-01-09T11:50:56.709Z,4.43
2023-01-09T11:53:25.475Z,4.75
2023-01-09T11:56:01.067Z,5.80
2023-01-09T11:58:34.918Z,6.10
2023-01-09T12:01:15.813Z,4.22
2023-01-09T12:04:02.402Z,4.43
2023-01-09T12:06:37.878Z,4.53
2023-01-09T12:09:09.081Z,4.78
2023-01-09T12:11:49.787Z,4.63
2023-01-09T12:14:35.820Z,8.95
2023-01-09T12:17:28.482Z,4.78
2023-01-09T12:20:25.812Z,8.88
2023-01-09T12:23:02.692Z,5.30
2023-01-09T12:28:31.773Z,5.22
2023-01-09T12:31:10.328Z,6.70
2023-01-09T12:33:48.056Z,7.60
2023-01-09T12:36:23.239Z,7.45
2023-01-09T12:38:56.267Z,5.45
2023-01-09T12:41:45.812Z,6.00
2023-01-09T12:44:35.944Z,5.97
2023-01-09T12:47:22.713Z,3.83
2023-01-09T12:49:59.922Z,6.33
2023-01-09T12:52:35.646Z,6.70
2023-01-09T12:55:13.380Z,5.38
2023-01-09T12:57:44.872Z,7.57
2023-01-09T13:00:19.854Z,9.85
2023-01-09T13:03:03.594Z,8.07
2023-01-09T13:05:43.915Z,7.57
2023-01-09T13:08:16.678Z,5.97
2023-01-09T13:10:48.736Z,9.43
2023-01-09T13:13:21.711Z,7.85
2023-01-09T13:15:54.599Z,5.07
2023-01-09T13:18:28.720Z,8.77
2023-01-09T13:20:58.041Z,6.47
2023-01-09T13:23:39.805Z,5.93
2023-01-09T13:26:11.772Z,10.30
2023-01-09T13:28:46.996Z,4.28
2023-01-09T13:31:33.745Z,5.50
2023-01-09T13:34:04.582Z,4.57
2023-01-09T13:36:39.429Z,7.60
2023-01-09T13:39:08.014Z,10.82
2023-01-09T13:42:06.316Z,5.88
2023-01-09T13:44:34.657Z,8.45
2023-01-09T13:47:04.557Z,10.20
2023-01-09T13:49:54.010Z,6.85
2023-01-09T13:52:36.555Z,9.90
2023-01-09T13:55:36.088Z,6.93
2023-01-09T13:58:24.452Z,8.90
2023-01-09T14:00:55.364Z,10.45
2023-01-09T14:03:29.466Z,9.65
2023-01-09T14:06:25.166Z,8.10
2023-01-09T14:09:18.225Z,4.97
2023-01-09T14:11:47.768Z,7.90
2023-01-09T14:14:27.417Z,9.73
2023-01-09T14:16:55.709Z,10.30
2023-01-09T14:19:35.394Z,6.72
2023-01-09T14:22:04.776Z,8.93
2023-01-09T14:24:41.047Z,13.50
2023-01-09T14:27:47.842Z,9.75
2023-01-09T14:30:33.417Z,11.63
2023-01-09T14:33:03.471Z,8.00
2023-01-09T14:35:42.894Z,7.13
2023-01-09T14:38:30.301Z,7.22
2023-01-09T14:43:46.545Z,8.23
2023-01-09T14:46:17.487Z,13.07
2023-01-09T14:48:58.299Z,11.13
2023-01-09T14:51:32.194Z,5.72
2023-01-09T14:54:02.204Z,7.20
2023-01-09T14:56:31.936Z,9.18
2023-01-09T14:59:07.615Z,8.18
2023-01-09T15:01:37.464Z,9.43
2023-01-09T15:04:12.686Z,7.60
2023-01-09T15:06:44.537Z,13.93
2023-01-09T15:09:23.030Z,10.32
2023-01-09T15:11:51.639Z,9.05
2023-01-09T15:14:30.013Z,7.38
2023-01-09T15:16:58.268Z,7.63
2023-01-09T15:19:26.333Z,8.95
2023-01-09T15:22:01.342Z,9.63
2023-01-09T15:24:32.378Z,8.63
2023-01-09T15:27:02.492Z,6.30
2023-01-09T15:29:30.622Z,8.65
2023-01-09T15:32:04.554Z,9.57
2023-01-09T15:34:33.888Z,12.70
2023-01-09T15:37:03.610Z,7.32
2023-01-09T15:39:37.371Z,9.50
2023-01-09T15:42:23.392Z,13.07
2023-01-09T15:44:53.841Z,8.82
2023-01-09T15:47:27.792Z,11.43
2023-01-09T15:49:57.848Z,11.80
2023-01-09T15:52:27.337Z,10.80
2023-01-09T15:54:55.652Z,13.32
2023-01-09T15:57:35.855Z,8.85
2023-01-09T16:00:42.513Z,10.75
2023-01-09T16:03:21.525Z,16.85
2023-01-09T16:05:57.970Z,12.25
2023-01-09T16:08:32.697Z,8.90
2023-01-09T16:11:04.098Z,7.90
2023-01-09T16:13:34.521Z,9.75
2023-01-09T16:16:03.802Z,20.15
2023-01-09T16:18:34.564Z,13.55
2023-01-09T16:21:05.457Z,8.05
2023-01-09T16:23:36.848Z,10.52
2023-01-09T16:26:06.987Z,13.00
2023-01-09T16:28:34.783Z,12.32
2023-01-09T16:31:05.138Z,8.65
2023-01-09T16:33:34.175Z,10.40
2023-01-09T16:36:03.418Z,8.93
2023-01-09T16:38:31.301Z,13.18
2023-01-09T16:41:22.506Z,9.15
2023-01-09T16:43:51.680Z,8.90
2023-01-09T16:46:21.191Z,10.93
2023-01-09T16:48:49.186Z,9.73
2023-01-09T16:51:19.382Z,7.68
2023-01-09T16:53:47.214Z,11.20
2023-01-09T16:56:19.995Z,15.25
2023-01-09T16:58:47.948Z,12.05
2023-01-09T17:01:16.043Z,12.52
2023-01-09T17:03:44.574Z,7.35
2023-01-09T17:06:17.162Z,9.15
2023-01-09T17:08:45.310Z,10.05
2023-01-09T17:11:21.638Z,8.82
2023-01-09T17:13:49.524Z,8.32
2023-01-09T17:16:18.512Z,9.43
2023-01-09T17:18:46.637Z,13.05
2023-01-09T17:21:18.573Z,8.60
2023-01-09T17:23:46.671Z,5.68
2023-01-09T17:26:37.324Z,7.85
2023-01-09T17:29:05.647Z,9.27
2023-01-09T17:31:33.512Z,10.60
2023-01-09T17:34:01.367Z,19.40
2023-01-09T17:36:32.397Z,9.43
2023-01-09T17:39:00.723Z,6.07
2023-01-09T17:41:31.677Z,10.38
2023-01-09T17:44:00.625Z,9.40
2023-01-09T17:46:31.112Z,8.88
2023-01-09T17:48:59.768Z,14.95
2023-01-09T17:51:27.612Z,10.00
2023-01-09T17:53:55.470Z,4.50
2023-01-09T17:56:26.865Z,7.43
2023-01-09T17:58:56.436Z,7.90
2023-01-09T18:01:24.306Z,10.50
2023-01-09T18:03:52.211Z,7.45
2023-01-09T18:06:22.371Z,12.80
2023-01-09T18:08:50.649Z,10.20
2023-01-09T18:11:20.373Z,11.07
2023-01-09T18:13:49.979Z,10.73
2023-01-09T18:16:20.965Z,6.95
2023-01-09T18:18:48.836Z,8.50
2023-01-09T18:21:20.143Z,6.05
2023-01-09T18:23:50.021Z,8.00
2023-01-09T18:26:21.234Z,9.02
2023-01-09T18:28:50.881Z,9.70
2023-01-09T18:31:22.819Z,6.35
2023-01-09T18:33:52.889Z,8.25
2023-01-09T18:36:22.013Z,8.25
2023-01-09T18:38:53.749Z,7.22
2023-01-09T18:41:22.595Z,8.85
2023-01-09T18:43:50.847Z,9.13
2023-01-09T18:46:24.067Z,4.43
2023-01-09T18:48:53.295Z,9.18
2023-01-09T18:51:22.053Z,5.20
2023-01-09T18:53:49.927Z,5.70
2023-01-09T18:56:19.422Z,6.80
2023-01-09T18:58:47.285Z,6.50
2023-01-09T19:01:15.413Z,6.10
2023-01-09T19:03:45.330Z,6.63
2023-01-09T19:06:13.475Z,5.95
2023-01-09T19:08:41.451Z,4.50
2023-01-09T19:11:09.400Z,5.53
2023-01-09T19:13:38.245Z,4.78
2023-01-09T19:16:08.066Z,3.80
2023-01-09T19:18:37.382Z,6.35
2023-01-09T19:21:12.672Z,4.70
2023-01-09T19:23:41.828Z,6.47
2023-01-09T19:26:16.182Z,7.07
2023-01-09T19:28:45.465Z,5.40
2023-01-09T19:31:13.634Z,8.30
2023-01-09T19:33:41.536Z,8.88
2023-01-09T19:36:11.026Z,4.03
2023-01-09T19:38:38.958Z,5.47
2023-01-09T19:41:13.192Z,3.35
2023-01-09T19:43:41.273Z,3.40
2023-01-09T19:46:10.697Z,4.72
2023-01-09T19:48:38.829Z,5.25
2023-01-09T19:51:08.941Z,4.30
2023-01-09T19:53:38.510Z,7.30
2023-01-09T19:56:10.900Z,5.45
2023-01-09T19:58:38.830Z,10.52
2023-01-09T20:01:08.944Z,4.57
2023-01-09T20:03:37.824Z,8.70
2023-01-09T20:06:07.229Z,8.25
2023-01-09T20:08:35.169Z,3.75
2023-01-09T20:11:06.670Z,4.05
2023-01-09T20:13:34.854Z,6.03
2023-01-09T20:16:03.715Z,4.63
2023-01-09T20:18:32.742Z,7.50
2023-01-09T20:21:00.530Z,8.55
2023-01-09T20:23:29.458Z,7.72
2023-01-09T20:25:59.777Z,8.80
2023-01-09T20:28:29.439Z,6.25
2023-01-09T20:30:57.289Z,7.50
2023-01-09T20:33:25.229Z,5.97
2023-01-09T20:35:53.091Z,9.90
2023-01-09T20:38:20.986Z,6.10
2023-01-09T20:40:48.815Z,8.65
2023-01-09T20:43:17.430Z,9.27
2023-01-09T20:45:46.668Z,8.35
2023-01-09T20:48:14.627Z,10.45
2023-01-09T20:50:42.601Z,7.20
2023-01-09T20:53:10.395Z,9.90
2023-01-09T20:55:38.251Z,10.60
2023-01-09T20:58:06.046Z,9.82
2023-01-09T21:00:33.888Z,10.45
2023-01-09T21:03:04.465Z,10.70
2023-01-09T21:05:32.269Z,9.25
2023-01-09T21:08:00.091Z,8.82
2023-01-09T21:10:27.929Z,9.88
2023-01-09T21:12:55.722Z,8.20
2023-01-09T21:15:24.590Z,13.40
2023-01-09T21:17:52.517Z,5.93
2023-01-09T21:20:21.931Z,10.98
2023-01-09T21:22:50.357Z,8.93
2023-01-09T21:25:18.232Z,6.30
2023-01-09T21:27:47.463Z,6.80
2023-01-09T21:30:15.686Z,11.00
2023-01-09T21:32:43.521Z,9.30
2023-01-09T21:35:11.305Z,9.43
2023-01-09T21:37:40.533Z,8.15
2023-01-09T21:40:13.100Z,10.60
2023-01-09T21:42:58.208Z,9.88
2023-01-09T21:45:42.807Z,12.57
2023-01-09T21:48:10.661Z,9.25
2023-01-09T21:50:38.475Z,10.13
2023-01-09T21:53:07.829Z,7.63
2023-01-09T21:55:36.021Z,10.15
2023-01-09T21:58:04.332Z,4.70
2023-01-09T22:00:32.717Z,9.77
2023-01-09T22:03:01.261Z,10.25
2023-01-09T22:05:29.132Z,9.15
2023-01-09T22:07:57.356Z,7.43
2023-01-09T22:10:26.700Z,11.40
2023-01-09T22:13:14.114Z,6.47
2023-01-09T22:18:10.155Z,9.13
2023-01-09T22:20:37.961Z,9.70
2023-01-09T22:23:05.818Z,7.60
2023-01-09T22:25:37.254Z,7.15
2023-01-09T22:28:05.365Z,8.68
2023-01-09T22:30:33.374Z,7.55
2023-01-09T22:33:02.752Z,11.93
2023-01-09T22:35:30.512Z,13.38
2023-01-09T22:37:58.327Z,15.82
2023-01-09T22:40:26.151Z,9.38
2023-01-09T22:42:55.730Z,9.73
2023-01-09T22:45:23.746Z,9.85
2023-01-09T22:47:51.609Z,13.65
2023-01-09T22:50:19.762Z,9.57
2023-01-09T22:52:48.535Z,7.82
2023-01-09T22:55:16.864Z,9.75
2023-01-09T22:57:44.790Z,6.95
2023-01-09T23:00:15.810Z,10.00
2023-01-09T23:02:43.662Z,10.90
2023-01-09T23:05:11.740Z,10.63
2023-01-09T23:07:39.604Z,11.95
2023-01-09T23:10:08.598Z,5.93
2023-01-09T23:12:36.409Z,6.15
2023-01-09T23:15:04.376Z,8.73
2023-01-09T23:17:33.574Z,8.57
2023-01-09T23:20:01.421Z,5.88
2023-01-09T23:22:29.215Z,7.35
2023-01-09T23:24:56.980Z,9.25
2023-01-09T23:27:24.801Z,7.80
2023-01-09T23:29:52.597Z,6.35
2023-01-09T23:32:20.433Z,6.35
2023-01-09T23:34:50.461Z,8.55
2023-01-09T23:37:18.298Z,7.00
2023-01-09T23:39:46.122Z,7.95
2023-01-09T23:42:31.723Z,8.90
2023-01-09T23:44:59.540Z,7.88
2023-01-09T23:47:27.326Z,9.15
2023-01-09T23:49:56.563Z,7.57
2023-01-09T23:52:24.451Z,9.50
2023-01-09T23:54:53.963Z,10.32
2023-01-09T23:57:21.758Z,10.63
2023-01-09T23:59:49.558Z,8.85
